Terminal Aerodrome Forecast
Issued by NWS Grand Forks, ND

Home | Current Version | Previous Version | Graphics & Text | Print | Product List | Glossary On
Versions: 1 2 3 4 5 6 7 8 9 10 11 12 13 14 15 16 17
017
FTUS43 KFGF 211314 AAB
TAFFAR
TAF AMD
KFAR 211314Z 2113/2212 VRB06KT P6SM FEW100
      TEMPO 2113/2114 3SM BR
     FM212300 21004KT P6SM SKC=

USA.gov is the U.S. government's official web portal to all federal, state and local government web resources and services.